Terminal Aerodrome Forecast
Issued by NWS

Home | Current Version | Previous Version | Graphics & Text | Print | Product List | Glossary On
Versions: 1 2 3 4 5 6 7 8 9 10 11 12 13 14 15
000
FTUS43 KLSX 242342
TAFSUS
TAF
KSUS 242342Z 2500/2524 VRB03KT P6SM SKC
     FM251500 22006KT P6SM SCT030 BKN120
     FM251800 22008KT P6SM VCTS BKN045CB=

USA.gov is the U.S. government's official web portal to all federal, state and local government web resources and services.